Time;durP1;ratioP1;P1;durP2;ratioP2;P2;SDS_P1;SDS_P2;PMS_P1;PMS_P2;Temp;Humidity;BMP_temperature;BMP_pressure;BME280_temperature;BME280_humidity;BME280_pressure;Samples;Min_cycle;Max_cycle;Signal;HPM_P1;HPM_P2
2022/05/11 00:01:29;;;;;;;11.93;11.00;;;18.20;99.90;;;;;;6075559;23;20453;-88
2022/05/11 00:03:56;;;;;;;11.60;10.80;;;18.20;99.90;;;;;;6095157;23;20446;-88
2022/05/11 00:06:23;;;;;;;10.93;10.03;;;18.30;99.90;;;;;;6094972;23;20509;-87
2022/05/11 00:08:52;;;;;;;11.63;10.80;;;18.30;99.90;;;;;;6078292;23;20498;-88
2022/05/11 00:11:19;;;;;;;11.73;10.93;;;18.30;99.90;;;;;;6091030;23;20447;-89
2022/05/11 00:13:46;;;;;;;11.10;10.30;;;18.30;99.90;;;;;;6091509;23;20477;-88
2022/05/11 00:16:13;;;;;;;13.17;12.17;;;18.20;99.90;;;;;;6098118;23;20458;-88
2022/05/11 00:18:40;;;;;;;13.20;12.10;;;18.20;99.90;;;;;;6091935;23;20525;-89
2022/05/11 00:21:10;;;;;;;12.93;12.00;;;18.10;99.90;;;;;;6067539;23;20474;-89
2022/05/11 00:23:38;;;;;;;11.83;11.00;;;18.10;99.90;;;;;;6085069;23;20473;-87
2022/05/11 00:26:07;;;;;;;12.53;11.53;;;18.00;99.90;;;;;;6091661;23;20473;-86
2022/05/11 00:28:34;;;;;;;12.40;11.40;;;17.90;99.90;;;;;;6094424;23;20435;-87
2022/05/11 00:31:02;;;;;;;12.90;11.80;;;17.90;99.90;;;;;;6092162;23;20528;-87
2022/05/11 00:33:29;;;;;;;12.67;11.63;;;17.80;99.90;;;;;;6077041;23;20443;-86
2022/05/11 00:35:57;;;;;;;13.47;12.47;;;17.70;99.90;;;;;;6106500;23;20505;-87
2022/05/11 00:38:27;;;;;;;13.40;12.30;;;17.60;99.90;;;;;;6089976;23;20438;-87
2022/05/11 00:40:56;;;;;;;11.50;10.70;;;17.60;99.90;;;;;;6090852;23;20557;-85
2022/05/11 00:43:29;;;;;;;11.67;10.77;;;17.60;99.90;;;;;;6093322;23;20442;-87
2022/05/11 00:46:08;;;;;;;12.83;11.83;;;17.50;99.90;;;;;;6080258;23;20519;-87
2022/05/11 00:51:20;;;;;;;13.27;12.00;;;17.50;99.90;;;;;;6092945;23;20512;-88
2022/05/11 00:53:52;;;;;;;12.00;11.10;;;17.40;99.90;;;;;;6092229;23;20439;-88
2022/05/11 00:56:19;;;;;;;13.37;12.37;;;17.40;99.90;;;;;;6091878;23;20467;-88
2022/05/11 00:58:51;;;;;;;12.17;11.10;;;17.40;99.90;;;;;;6091190;23;20529;-88
2022/05/11 01:01:19;;;;;;;12.83;11.93;;;17.40;99.90;;;;;;6083326;23;20474;-88
2022/05/11 01:03:51;;;;;;;11.83;10.93;;;17.40;99.90;;;;;;6091413;23;21083;-87
2022/05/11 01:06:19;;;;;;;12.30;11.40;;;17.40;99.90;;;;;;6091726;23;20500;-87
2022/05/11 01:08:46;;;;;;;11.07;10.27;;;17.30;99.90;;;;;;6089276;23;20489;-87
2022/05/11 01:11:14;;;;;;;12.53;11.53;;;17.30;99.90;;;;;;6090621;23;20474;-87
2022/05/11 01:13:43;;;;;;;10.90;10.20;;;17.30;99.90;;;;;;6090377;23;20451;-88
2022/05/11 01:16:12;;;;;;;11.03;10.23;;;17.20;99.90;;;;;;6077922;23;20551;-88
2022/05/11 01:18:41;;;;;;;11.33;10.43;;;17.30;99.90;;;;;;6092282;23;20449;-88
2022/05/11 01:21:08;;;;;;;11.10;10.30;;;17.30;99.90;;;;;;6065863;23;20482;-87
2022/05/11 01:23:44;;;;;;;11.67;10.70;;;17.20;99.90;;;;;;6107961;23;20446;-87
2022/05/11 01:26:16;;;;;;;11.40;10.50;;;17.20;99.90;;;;;;6091248;23;20466;-87
2022/05/11 01:28:47;;;;;;;11.27;10.37;;;17.20;99.90;;;;;;6090858;23;20566;-87
2022/05/11 01:31:16;;;;;;;11.27;10.27;;;17.20;99.90;;;;;;6098174;23;20450;-87
2022/05/11 01:33:47;;;;;;;11.53;10.63;;;17.10;99.90;;;;;;6087065;23;20820;-87
2022/05/11 01:36:21;;;;;;;12.60;11.70;;;17.10;99.90;;;;;;6088983;23;20464;-88
2022/05/11 01:38:50;;;;;;;11.67;10.70;;;17.00;99.90;;;;;;6106365;23;20473;-87
2022/05/11 01:41:23;;;;;;;12.93;11.90;;;17.00;99.90;;;;;;6093651;23;20516;-87
2022/05/11 01:43:51;;;;;;;12.10;11.20;;;16.90;99.90;;;;;;6065513;23;20461;-87
2022/05/11 01:46:20;;;;;;;12.00;11.10;;;16.80;99.90;;;;;;6068887;23;20461;-88
2022/05/11 01:48:47;;;;;;;12.67;11.67;;;16.80;99.90;;;;;;6091230;23;20462;-87
2022/05/11 01:51:16;;;;;;;11.50;10.70;;;16.80;99.90;;;;;;6081071;23;20477;-88
2022/05/11 01:53:43;;;;;;;11.87;10.90;;;16.80;99.90;;;;;;6091312;23;20456;-87
2022/05/11 01:56:11;;;;;;;12.47;11.57;;;16.70;99.90;;;;;;6094535;23;20548;-87
2022/05/11 01:58:39;;;;;;;11.70;10.90;;;16.70;99.90;;;;;;6093227;23;20436;-86
2022/05/11 02:01:07;;;;;;;11.70;10.90;;;16.70;99.90;;;;;;6067327;23;20560;-87
2022/05/11 02:03:34;;;;;;;11.87;10.97;;;16.60;99.90;;;;;;6075300;23;20481;-87
2022/05/11 02:08:46;;;;;;;11.90;10.90;;;16.50;99.90;;;;;;6079410;23;20445;-88
2022/05/11 02:11:15;;;;;;;13.97;12.83;;;16.50;99.90;;;;;;6091861;23;20503;-87
2022/05/11 02:13:45;;;;;;;12.33;11.53;;;16.40;99.90;;;;;;6108692;23;20476;-87
2022/05/11 02:16:12;;;;;;;13.10;12.10;;;16.40;99.90;;;;;;6093394;23;20514;-87
2022/05/11 02:18:40;;;;;;;14.17;13.07;;;16.30;99.90;;;;;;6094708;23;20533;-88
2022/05/11 02:21:08;;;;;;;13.90;12.90;;;16.30;99.90;;;;;;6091490;23;20511;-87
2022/05/11 02:23:37;;;;;;;14.33;13.23;;;16.20;99.90;;;;;;6091958;23;20446;-87
2022/05/11 02:26:05;;;;;;;16.33;15.00;;;16.20;99.90;;;;;;6087216;23;20911;-87
2022/05/11 02:28:32;;;;;;;16.23;14.83;;;16.20;99.90;;;;;;6092436;23;20589;-88
2022/05/11 02:31:01;;;;;;;17.10;15.73;;;16.10;99.90;;;;;;6092110;23;20572;-87
2022/05/11 02:33:29;;;;;;;17.93;16.27;;;16.10;99.90;;;;;;6084208;23;20537;-88
2022/05/11 02:35:56;;;;;;;18.17;16.47;;;16.10;99.90;;;;;;6067775;23;20854;-87
2022/05/11 02:38:25;;;;;;;18.10;16.60;;;16.00;99.90;;;;;;6091441;23;20930;-87
2022/05/11 02:40:54;;;;;;;20.23;18.53;;;16.00;99.90;;;;;;6098571;23;20497;-87
2022/05/11 02:43:21;;;;;;;18.80;17.40;;;15.90;99.90;;;;;;6092520;23;20461;-88
2022/05/11 02:45:49;;;;;;;19.97;18.37;;;15.80;99.90;;;;;;6088065;23;20465;-88
2022/05/11 02:48:21;;;;;;;20.70;18.90;;;15.70;99.90;;;;;;6067174;23;20488;-88
2022/05/11 02:50:51;;;;;;;18.50;17.00;;;15.70;99.90;;;;;;6102810;23;20532;-88
2022/05/11 02:53:18;;;;;;;19.47;17.97;;;15.60;99.90;;;;;;6092528;23;20477;-87
2022/05/11 02:55:48;;;;;;;19.23;17.60;;;15.60;99.90;;;;;;6091899;23;20470;-87
2022/05/11 02:58:17;;;;;;;18.73;17.13;;;15.50;99.90;;;;;;6092244;23;20445;-87
2022/05/11 03:00:47;;;;;;;18.90;17.40;;;15.40;99.90;;;;;;6089036;23;20462;-86
2022/05/11 03:03:15;;;;;;;19.57;18.07;;;15.40;99.90;;;;;;6071838;23;20446;-88
2022/05/11 03:05:45;;;;;;;19.60;18.00;;;15.40;99.90;;;;;;6089435;23;20458;-86
2022/05/11 03:08:12;;;;;;;20.20;18.27;;;15.40;99.90;;;;;;6090849;23;20932;-87
2022/05/11 03:10:40;;;;;;;18.83;17.23;;;15.30;99.90;;;;;;6111613;23;20461;-87
2022/05/11 03:13:08;;;;;;;19.30;17.70;;;15.30;99.90;;;;;;6094952;23;20531;-87
2022/05/11 03:15:36;;;;;;;18.60;17.10;;;15.30;99.90;;;;;;6075348;23;20552;-87
2022/05/11 03:18:03;;;;;;;18.20;16.80;;;15.30;99.90;;;;;;6066440;23;20453;-88
2022/05/11 03:20:30;;;;;;;18.83;17.27;;;15.30;99.90;;;;;;6092571;23;20956;-88
2022/05/11 03:23:00;;;;;;;19.00;17.30;;;15.20;99.90;;;;;;6091117;23;20520;-87
2022/05/11 03:25:27;;;;;;;18.00;16.60;;;15.20;99.90;;;;;;6093928;23;20469;-88
2022/05/11 03:27:54;;;;;;;17.80;16.33;;;15.20;99.90;;;;;;6091688;23;20792;-87
2022/05/11 03:30:22;;;;;;;18.70;17.00;;;15.20;99.90;;;;;;6088508;23;20915;-88
2022/05/11 03:35:37;;;;;;;17.97;16.47;;;15.20;99.90;;;;;;6091633;23;20465;-87
2022/05/11 03:38:05;;;;;;;18.20;16.60;;;15.10;99.90;;;;;;6105125;23;20451;-86
2022/05/11 03:40:34;;;;;;;17.83;16.30;;;15.20;99.90;;;;;;6096327;23;20795;-88
2022/05/11 03:43:03;;;;;;;16.83;15.43;;;15.20;99.90;;;;;;6073254;23;20499;-87
2022/05/11 03:45:31;;;;;;;17.40;15.90;;;15.20;99.90;;;;;;6091095;23;20464;-88
2022/05/11 03:47:58;;;;;;;16.93;15.63;;;15.20;99.90;;;;;;6091219;23;20808;-87
2022/05/11 03:50:25;;;;;;;16.80;15.50;;;15.20;99.90;;;;;;6098901;23;20541;-87
2022/05/11 03:52:53;;;;;;;17.50;16.00;;;15.20;99.90;;;;;;6096938;23;20861;-86
2022/05/11 03:55:23;;;;;;;17.47;15.97;;;15.20;99.90;;;;;;6092677;23;20458;-85
2022/05/11 03:57:51;;;;;;;17.73;16.23;;;15.10;99.90;;;;;;6083138;22;20510;-83
2022/05/11 04:00:21;;;;;;;17.93;16.33;;;15.20;99.90;;;;;;6056148;23;20439;-84
2022/05/11 04:02:49;;;;;;;17.27;15.73;;;15.20;99.90;;;;;;6057624;23;20491;-83
2022/05/11 04:05:18;;;;;;;16.67;15.47;;;15.20;99.90;;;;;;6071354;23;20529;-82
2022/05/11 04:07:44;;;;;;;17.40;16.00;;;15.20;99.90;;;;;;6081122;23;20490;-82
2022/05/11 04:10:13;;;;;;;15.90;14.50;;;15.10;99.90;;;;;;6050299;23;20470;-83
2022/05/11 04:12:42;;;;;;;16.40;15.00;;;15.20;99.90;;;;;;6048896;23;20453;-81
2022/05/11 04:15:11;;;;;;;16.47;15.17;;;15.10;99.90;;;;;;6047028;23;20471;-82
2022/05/11 04:17:38;;;;;;;15.83;14.53;;;15.10;99.90;;;;;;6055570;23;20860;-82
2022/05/11 04:20:06;;;;;;;16.73;15.33;;;15.10;99.90;;;;;;6056912;23;20437;-83
2022/05/11 04:22:33;;;;;;;15.47;14.23;;;15.10;99.90;;;;;;6063697;23;20872;-82
2022/05/11 04:25:00;;;;;;;15.93;14.43;;;15.10;99.90;;;;;;6067457;23;20910;-82
2022/05/11 04:27:28;;;;;;;15.87;14.40;;;15.20;99.90;;;;;;6063049;23;20525;-82
2022/05/11 04:29:56;;;;;;;14.87;13.67;;;15.20;99.90;;;;;;6070689;23;20991;-82
2022/05/11 04:32:23;;;;;;;16.90;15.50;;;15.30;99.90;;;;;;6061471;23;20517;-82
2022/05/11 04:34:51;;;;;;;14.30;13.10;;;15.30;99.90;;;;;;6059436;23;20494;-82
2022/05/11 04:37:18;;;;;;;15.17;13.97;;;15.30;99.90;;;;;;6059022;23;20511;-82
2022/05/11 04:39:45;;;;;;;14.57;13.33;;;15.30;99.90;;;;;;6064195;23;20556;-82
2022/05/11 04:42:12;;;;;;;14.47;13.37;;;15.30;99.90;;;;;;6068390;23;20588;-81
2022/05/11 04:44:40;;;;;;;15.57;14.30;;;15.30;99.90;;;;;;6057844;23;20527;-82
2022/05/11 04:47:11;;;;;;;14.77;13.57;;;15.30;99.90;;;;;;6072576;23;21007;-82
2022/05/11 04:49:39;;;;;;;14.00;12.90;;;15.40;99.90;;;;;;6053523;23;20446;-81
2022/05/11 04:52:08;;;;;;;13.63;12.50;;;15.40;99.90;;;;;;6069010;23;20445;-82
2022/05/11 04:54:37;;;;;;;13.17;12.00;;;15.40;99.90;;;;;;6057109;23;20455;-81
2022/05/11 04:57:05;;;;;;;13.83;12.73;;;15.50;99.90;;;;;;6068497;23;21027;-81
2022/05/11 04:59:43;;;;;;;13.43;12.23;;;15.50;99.90;;;;;;6083472;23;20474;-88
2022/05/11 05:02:17;;;;;;;13.23;12.13;;;15.60;99.90;;;;;;6069229;23;20967;-88
2022/05/11 05:04:44;;;;;;;12.80;11.83;;;15.60;99.90;;;;;;6062151;23;20486;-87
2022/05/11 05:07:11;;;;;;;13.83;12.67;;;15.60;99.90;;;;;;6070700;23;20526;-88
2022/05/11 05:09:37;;;;;;;12.30;11.40;;;15.70;99.90;;;;;;6063198;23;20521;-87
2022/05/11 05:12:05;;;;;;;11.80;10.90;;;15.70;99.90;;;;;;6060052;23;20520;-82
2022/05/11 05:14:33;;;;;;;12.17;11.17;;;15.70;99.90;;;;;;6062122;23;20545;-85
2022/05/11 05:17:03;;;;;;;11.77;10.77;;;15.80;99.90;;;;;;6069911;23;20458;-83
2022/05/11 05:19:40;;;;;;;12.40;11.20;;;15.90;99.90;;;;;;6051897;23;20449;-83
2022/05/11 05:22:08;;;;;;;12.20;11.20;;;16.00;99.90;;;;;;6062076;23;20889;-83
2022/05/11 05:24:35;;;;;;;12.53;11.63;;;16.10;99.90;;;;;;6066161;23;20552;-83
2022/05/11 05:27:03;;;;;;;11.70;10.80;;;16.20;99.90;;;;;;6063076;23;20518;-82
2022/05/11 05:32:16;;;;;;;10.13;9.33;;;16.30;99.90;;;;;;6067643;23;20451;-82
2022/05/11 05:34:44;;;;;;;11.60;10.60;;;16.40;99.90;;;;;;6037408;23;20459;-82
2022/05/11 05:37:13;;;;;;;11.10;10.17;;;16.50;99.90;;;;;;6070713;23;20558;-83
2022/05/11 05:39:40;;;;;;;11.03;10.13;;;16.50;99.90;;;;;;6077772;23;20464;-82
2022/05/11 05:42:09;;;;;;;11.40;10.57;;;16.60;99.90;;;;;;6063732;23;20499;-82
2022/05/11 05:44:37;;;;;;;11.60;10.70;;;16.60;99.90;;;;;;6064694;23;20455;-82
2022/05/11 05:47:06;;;;;;;11.30;10.30;;;16.70;99.90;;;;;;6062660;23;20450;-93
2022/05/11 05:49:34;;;;;;;10.50;9.50;;;16.80;99.90;;;;;;6068214;23;20525;-83
2022/05/11 05:52:04;;;;;;;10.93;10.03;;;16.90;99.90;;;;;;6060810;23;20527;-83
2022/05/11 05:54:31;;;;;;;10.80;8.97;;;17.10;99.90;;;;;;6069149;23;20537;-81
2022/05/11 05:56:59;;;;;;;10.63;9.60;;;17.20;99.90;;;;;;6071836;23;20490;-80
2022/05/11 05:59:26;;;;;;;9.93;9.17;;;17.30;99.90;;;;;;6045617;23;20483;-81
2022/05/11 06:01:53;;;;;;;10.30;9.30;;;17.30;99.90;;;;;;6059478;23;20463;-82
2022/05/11 06:04:21;;;;;;;9.23;8.43;;;17.50;99.90;;;;;;6065314;23;20466;-82
2022/05/11 06:06:47;;;;;;;9.10;8.30;;;17.70;99.90;;;;;;6073442;23;21131;-83
2022/05/11 06:09:16;;;;;;;7.90;7.30;;;17.80;99.90;;;;;;6064505;23;20451;-83
2022/05/11 06:11:44;;;;;;;7.90;7.30;;;18.00;99.90;;;;;;6061940;23;20471;-83
2022/05/11 06:14:11;;;;;;;8.10;7.50;;;18.20;99.90;;;;;;6057367;23;20514;-81
2022/05/11 06:16:38;;;;;;;7.30;6.80;;;18.30;99.90;;;;;;6059211;23;20454;-80
2022/05/11 06:19:05;;;;;;;9.77;6.63;;;18.50;99.90;;;;;;6067880;23;20446;-80
2022/05/11 06:21:33;;;;;;;7.17;6.47;;;18.70;99.90;;;;;;6064198;23;20470;-82
2022/05/11 06:24:00;;;;;;;6.80;6.20;;;18.90;99.90;;;;;;6063732;23;20984;-82
2022/05/11 06:26:29;;;;;;;10.70;6.50;;;19.10;99.90;;;;;;6061005;23;20474;-81
2022/05/11 06:28:56;;;;;;;6.63;6.10;;;19.30;99.90;;;;;;6063058;23;20854;-82
2022/05/11 06:31:24;;;;;;;6.80;6.20;;;19.50;99.90;;;;;;6063121;23;20486;-81
2022/05/11 06:33:53;;;;;;;6.13;5.67;;;19.60;99.90;;;;;;6058255;23;20463;-81
2022/05/11 06:36:23;;;;;;;5.83;5.23;;;19.80;99.90;;;;;;6055896;23;20450;-82
2022/05/11 06:38:50;;;;;;;5.90;5.40;;;19.90;99.90;;;;;;6063727;23;20497;-82
2022/05/11 06:41:20;;;;;;;6.00;5.50;;;20.10;99.90;;;;;;6064240;23;20443;-82
2022/05/11 06:43:49;;;;;;;5.20;4.80;;;20.20;99.90;;;;;;6059972;23;20463;-82
2022/05/11 06:46:15;;;;;;;5.50;5.00;;;20.40;99.90;;;;;;6062392;23;20466;-82
2022/05/11 06:48:45;;;;;;;8.37;5.10;;;20.50;99.90;;;;;;6071996;23;20906;-82
2022/05/11 06:51:12;;;;;;;5.40;5.10;;;20.60;99.90;;;;;;6076268;23;20436;-82
2022/05/11 06:59:24;;;;;;;6.03;5.43;;;21.10;99.90;;;;;;6057860;23;20461;-82
2022/05/11 07:01:52;;;;;;;5.83;5.23;;;21.20;99.90;;;;;;6060247;23;20542;-82
2022/05/11 07:04:22;;;;;;;5.90;5.40;;;21.40;99.90;;;;;;6061781;23;20463;-82
2022/05/11 07:06:49;;;;;;;5.57;5.07;;;21.60;99.90;;;;;;6061048;23;20844;-83
2022/05/11 07:09:17;;;;;;;6.63;5.47;;;21.80;99.90;;;;;;6065297;23;20491;-82
2022/05/11 07:14:30;;;;;;;5.17;4.70;;;22.20;99.90;;;;;;6060292;23;20536;-82
2022/05/11 07:16:57;;;;;;;5.30;4.90;;;22.60;99.90;;;;;;6061830;23;20447;-82
2022/05/11 07:19:25;;;;;;;6.03;5.63;;;23.10;99.90;;;;;;6064330;23;20942;-82
2022/05/11 07:21:53;;;;;;;5.40;4.90;;;23.60;99.90;;;;;;6064073;23;20497;-83
2022/05/11 07:24:20;;;;;;;5.13;4.63;;;24.20;99.90;;;;;;6062381;23;20497;-83
2022/05/11 07:26:47;;;;;;;5.17;4.67;;;24.60;99.90;;;;;;6063007;23;20445;-82
2022/05/11 07:29:16;;;;;;;5.63;5.20;;;25.10;99.90;;;;;;6064882;23;20453;-82
2022/05/11 07:31:46;;;;;;;5.20;4.80;;;25.60;99.90;;;;;;6060357;23;20454;-83
2022/05/11 07:34:13;;;;;;;7.60;4.97;;;26.10;99.90;;;;;;6067136;23;20545;-83
2022/05/11 07:36:40;;;;;;;4.00;3.70;;;26.30;99.90;;;;;;6064123;23;20953;-82
2022/05/11 07:39:08;;;;;;;6.00;3.73;;;26.70;97.60;;;;;;6068618;23;20439;-82
2022/05/11 07:41:35;;;;;;;3.87;3.57;;;26.70;96.00;;;;;;6061475;23;20945;-82
2022/05/11 07:44:02;;;;;;;4.07;3.67;;;26.50;94.50;;;;;;6066186;23;20458;-82
2022/05/11 07:46:34;;;;;;;4.37;3.97;;;26.30;94.80;;;;;;6061647;23;20443;-82
2022/05/11 07:49:03;;;;;;;7.30;4.30;;;26.20;94.10;;;;;;6086452;23;20494;-83
2022/05/11 07:51:31;;;;;;;4.33;4.03;;;26.40;95.00;;;;;;6087806;23;20517;-83
2022/05/11 07:53:58;;;;;;;5.37;3.50;;;27.00;93.60;;;;;;6053499;23;20471;-82
2022/05/11 08:01:54;;;;;;;3.57;3.27;;;27.30;91.90;;;;;;6062730;23;20470;-82
2022/05/11 08:04:23;;;;;;;4.27;3.50;;;27.20;90.00;;;;;;6063207;23;20492;-82
2022/05/11 08:06:50;;;;;;;6.00;3.70;;;27.20;90.70;;;;;;6062577;23;20810;-82
2022/05/11 08:09:17;;;;;;;3.80;3.43;;;27.20;90.20;;;;;;6060144;23;20467;-82
2022/05/11 08:11:44;;;;;;;4.40;4.00;;;27.30;89.50;;;;;;6062322;23;20614;-82
2022/05/11 08:14:11;;;;;;;4.87;4.13;;;27.40;89.60;;;;;;6059681;23;20495;-82
2022/05/11 08:16:38;;;;;;;5.17;4.40;;;27.40;89.50;;;;;;6065299;23;20454;-81
2022/05/11 08:19:05;;;;;;;8.47;4.10;;;27.60;88.90;;;;;;6065373;23;20538;-81
2022/05/11 08:21:34;;;;;;;4.03;3.73;;;27.50;90.00;;;;;;6069755;23;20439;-81
2022/05/11 08:24:01;;;;;;;3.90;3.50;;;27.60;87.60;;;;;;6063791;23;20470;-82
2022/05/11 08:26:28;;;;;;;3.50;3.30;;;27.50;87.10;;;;;;6061890;23;20988;-81
2022/05/11 08:28:56;;;;;;;3.90;3.60;;;27.40;87.50;;;;;;6064954;23;20538;-81
2022/05/11 08:34:08;;;;;;;4.87;4.00;;;27.40;86.30;;;;;;6064375;23;20478;-81
2022/05/11 08:36:37;;;;;;;4.77;3.97;;;27.60;87.10;;;;;;6060118;23;20497;-81
2022/05/11 08:39:05;;;;;;;3.90;3.60;;;27.50;85.90;;;;;;6059486;23;20517;-81
2022/05/11 08:41:36;;;;;;;4.43;3.50;;;27.50;85.70;;;;;;6061253;23;20925;-81
2022/05/11 08:44:09;;;;;;;4.13;3.83;;;27.60;84.30;;;;;;6061330;23;20609;-81
2022/05/11 08:46:53;;;;;;;4.30;3.90;;;27.90;84.60;;;;;;6069241;23;20451;-81
2022/05/11 08:49:28;;;;;;;3.80;3.40;;;28.50;84.40;;;;;;6076494;23;20431;-82
2022/05/11 08:52:01;;;;;;;3.37;3.07;;;28.80;82.20;;;;;;6061521;23;20469;-81
2022/05/11 08:54:48;;;;;;;3.93;3.63;;;28.80;79.80;;;;;;6061335;23;20535;-81
2022/05/11 08:57:18;;;;;;;3.83;3.63;;;28.70;80.20;;;;;;6059743;23;20475;-81
2022/05/11 08:59:46;;;;;;;3.80;3.50;;;28.70;76.00;;;;;;6065076;23;20944;-81
2022/05/11 09:02:20;;;;;;;4.73;4.00;;;28.40;75.80;;;;;;6058641;23;20466;-82
2022/05/11 09:04:49;;;;;;;4.20;3.73;;;28.60;77.30;;;;;;6060096;23;21028;-81
2022/05/11 09:07:19;;;;;;;3.83;3.60;;;29.00;76.60;;;;;;6063211;23;20534;-81
2022/05/11 09:09:46;;;;;;;4.10;3.80;;;29.30;76.40;;;;;;6060560;23;20527;-81
2022/05/11 09:12:14;;;;;;;3.70;3.40;;;29.10;75.00;;;;;;6057286;23;20455;-81
2022/05/11 09:14:45;;;;;;;4.17;3.83;;;29.20;77.00;;;;;;6064499;23;20498;-82
2022/05/11 09:17:23;;;;;;;7.10;3.97;;;29.30;75.40;;;;;;6063176;23;20474;-82
2022/05/11 09:20:01;;;;;;;5.03;3.40;;;29.30;73.70;;;;;;6059579;23;20447;-81
2022/05/11 09:22:31;;;;;;;3.77;3.50;;;29.20;73.80;;;;;;6065551;23;20496;-82
2022/05/11 09:25:02;;;;;;;4.13;3.43;;;29.80;72.60;;;;;;6062318;23;20534;-82
2022/05/11 09:27:31;;;;;;;4.20;3.77;;;30.10;72.40;;;;;;6057914;23;20789;-82
2022/05/11 09:30:01;;;;;;;3.90;3.57;;;30.30;71.10;;;;;;6059866;23;20446;-81
2022/05/11 09:32:37;;;;;;;7.07;4.10;;;30.30;71.30;;;;;;6056253;23;20913;-81
2022/05/11 09:35:22;;;;;;;4.17;3.77;;;30.40;71.40;;;;;;6049957;23;20829;-81
2022/05/11 09:38:01;;;;;;;5.33;4.37;;;30.00;70.50;;;;;;6064650;23;20929;-81
2022/05/11 09:40:30;;;;;;;4.17;3.97;;;29.90;71.40;;;;;;6054827;23;20522;-81
2022/05/11 09:42:59;;;;;;;4.33;3.70;;;29.80;72.40;;;;;;6095223;23;20454;-81
2022/05/11 09:45:42;;;;;;;9.27;4.40;;;30.00;72.80;;;;;;6089605;23;20457;-82
2022/05/11 09:48:18;;;;;;;4.80;4.23;;;29.70;72.20;;;;;;6084845;23;20439;-81
2022/05/11 09:50:47;;;;;;;4.80;4.50;;;29.80;72.70;;;;;;6069121;23;20443;-81
2022/05/11 09:53:28;;;;;;;4.60;4.20;;;30.20;73.20;;;;;;6088320;23;20585;-79
2022/05/11 09:55:56;;;;;;;4.30;4.00;;;30.20;72.60;;;;;;6095221;23;20441;-81
2022/05/11 09:58:29;;;;;;;5.70;4.03;;;29.90;72.40;;;;;;6087017;23;20497;-80
2022/05/11 10:01:11;;;;;;;5.97;4.77;;;30.00;72.50;;;;;;6091807;23;20431;-81
2022/05/11 10:03:43;;;;;;;5.20;4.70;;;30.00;73.10;;;;;;6094601;23;20475;-81
2022/05/11 10:06:12;;;;;;;4.23;3.90;;;30.20;72.40;;;;;;6063213;23;20474;-81
2022/05/11 10:08:44;;;;;;;4.70;4.30;;;30.40;71.90;;;;;;6062639;23;21169;-81
2022/05/11 10:11:22;;;;;;;6.33;4.77;;;30.40;72.30;;;;;;6067001;23;20443;-81
2022/05/11 10:13:56;;;;;;;9.10;4.50;;;30.40;71.00;;;;;;6047032;23;20893;-80
2022/05/11 10:22:19;;;;;;;4.47;4.17;;;29.80;71.80;;;;;;6074238;23;20446;-80
2022/05/11 10:25:12;;;;;;;4.40;4.03;;;29.80;73.80;;;;;;6063355;23;20482;-82
2022/05/11 10:27:43;;;;;;;5.03;4.63;;;30.40;71.40;;;;;;6060364;23;20520;-79
2022/05/11 10:30:19;;;;;;;8.27;5.03;;;30.70;70.00;;;;;;6059793;23;20458;-79
2022/05/11 10:33:20;;;;;;;11.87;4.70;;;30.80;70.40;;;;;;6053824;23;20941;-79
2022/05/11 10:36:00;;;;;;;5.10;4.63;;;30.60;70.70;;;;;;6060818;23;20789;-79
2022/05/11 10:38:41;;;;;;;5.10;4.80;;;30.80;70.00;;;;;;6063746;23;20447;-78
2022/05/11 10:41:19;;;;;;;5.30;4.80;;;30.70;69.60;;;;;;6065756;23;20461;-78
2022/05/11 10:43:56;;;;;;;4.93;4.40;;;30.70;70.50;;;;;;6056221;23;20478;-79
2022/05/11 10:46:31;;;;;;;4.77;4.47;;;31.20;69.20;;;;;;6063012;23;20471;-79
2022/05/11 10:49:24;;;;;;;5.20;4.70;;;30.90;69.20;;;;;;6070378;23;20541;-79
2022/05/11 10:52:03;;;;;;;5.50;4.10;;;30.50;70.80;;;;;;6044120;23;20435;-79
2022/05/11 10:54:39;;;;;;;7.33;4.10;;;30.80;69.10;;;;;;6068379;23;20532;-79
2022/05/11 10:57:15;;;;;;;4.90;4.47;;;31.10;65.70;;;;;;6059286;23;20499;-79
2022/05/11 11:00:02;;;;;;;4.33;4.03;;;30.50;65.60;;;;;;6065087;23;20493;-79
2022/05/11 11:03:05;;;;;;;11.90;4.80;;;29.70;66.90;;;;;;6064192;23;20447;-79
2022/05/11 11:05:46;;;;;;;4.00;3.70;;;29.90;66.60;;;;;;6062322;23;20431;-79
2022/05/11 11:08:22;;;;;;;4.30;3.90;;;29.70;67.60;;;;;;6060011;23;21001;-79
2022/05/11 11:10:55;;;;;;;5.93;4.37;;;29.40;67.10;;;;;;6070739;23;20471;-79
2022/05/11 11:13:42;;;;;;;4.50;4.20;;;29.40;67.70;;;;;;6072758;23;20527;-79
2022/05/11 11:16:13;;;;;;;4.27;3.90;;;29.70;65.60;;;;;;6064515;23;20646;-79
2022/05/11 11:18:42;;;;;;;7.03;4.00;;;30.20;65.70;;;;;;6067623;23;20513;-79
2022/05/11 11:21:12;;;;;;;6.40;3.23;;;30.50;63.40;;;;;;6073373;23;20475;-79
2022/05/11 11:23:42;;;;;;;6.20;4.20;;;30.50;63.40;;;;;;6065596;23;20503;-79
2022/05/11 11:26:10;;;;;;;4.40;4.10;;;30.30;63.70;;;;;;6081400;23;20952;-78
2022/05/11 11:29:17;;;;;;;9.73;4.10;;;30.00;63.80;;;;;;6064711;23;20445;-80
2022/05/11 11:32:14;;;;;;;4.33;3.50;;;29.50;60.90;;;;;;6067898;23;20445;-81
2022/05/11 11:34:44;;;;;;;4.30;3.33;;;29.60;60.30;;;;;;6079131;23;20483;-82
2022/05/11 11:37:38;;;;;;;3.63;3.33;;;29.90;61.10;;;;;;6068513;23;20443;-81
2022/05/11 11:40:23;;;;;;;3.77;3.53;;;30.00;60.30;;;;;;6066152;23;20447;-80
2022/05/11 11:42:51;;;;;;;4.73;3.77;;;30.10;60.60;;;;;;6069338;23;21064;-81
2022/05/11 11:45:59;;;;;;;4.47;4.07;;;30.10;59.90;;;;;;6065229;23;20497;-81
2022/05/11 11:48:29;;;;;;;4.03;3.63;;;30.20;59.20;;;;;;6067264;23;20447;-81
2022/05/11 11:50:59;;;;;;;3.73;3.13;;;30.30;57.60;;;;;;6072512;23;20513;-81
2022/05/11 11:53:36;;;;;;;5.60;3.07;;;30.10;57.60;;;;;;6065352;23;20458;-81
2022/05/11 11:56:39;;;;;;;5.07;3.33;;;30.40;58.30;;;;;;6073785;23;20447;-81
2022/05/11 11:59:09;;;;;;;3.70;3.20;;;30.80;58.60;;;;;;6065922;23;20451;-81
2022/05/11 12:01:39;;;;;;;4.53;3.07;;;31.00;56.70;;;;;;6062759;23;20527;-80
2022/05/11 12:04:19;;;;;;;3.70;3.40;;;30.40;57.40;;;;;;6076188;23;20871;-81
2022/05/11 12:15:17;;;;;;;4.07;3.30;;;30.10;55.30;;;;;;6072673;23;20972;-80
2022/05/11 12:17:44;;;;;;;3.73;3.20;;;30.30;55.50;;;;;;6078522;23;20434;-80
2022/05/11 12:20:17;;;;;;;6.57;3.73;;;30.50;54.80;;;;;;6075316;23;20951;-80
2022/05/11 12:22:50;;;;;;;4.03;3.03;;;30.60;55.00;;;;;;6073591;23;20532;-81
2022/05/11 12:25:26;;;;;;;6.67;3.67;;;30.70;54.10;;;;;;6061454;23;20474;-80
2022/05/11 12:27:54;;;;;;;4.10;2.97;;;30.70;54.90;;;;;;6060339;23;20485;-80
2022/05/11 12:30:25;;;;;;;3.33;3.00;;;30.80;55.30;;;;;;6064519;23;21014;-80
2022/05/11 12:32:56;;;;;;;7.57;3.40;;;31.10;55.00;;;;;;6063019;23;20476;-81
2022/05/11 12:35:29;;;;;;;3.90;3.10;;;31.20;55.60;;;;;;6052659;23;20436;-80
2022/05/11 12:38:03;;;;;;;3.87;2.80;;;31.50;55.70;;;;;;6064321;23;20439;-80
2022/05/11 12:40:33;;;;;;;3.20;3.00;;;31.40;52.70;;;;;;6061584;23;20439;-81
2022/05/11 12:43:08;;;;;;;3.67;3.37;;;31.40;54.10;;;;;;6062726;23;20821;-81
2022/05/11 12:45:39;;;;;;;3.40;3.20;;;31.50;55.50;;;;;;6060905;23;20891;-80
2022/05/11 12:48:07;;;;;;;5.23;3.33;;;31.70;55.60;;;;;;6060994;23;20938;-81
2022/05/11 12:50:38;;;;;;;2.90;2.70;;;32.00;55.50;;;;;;6062424;23;20447;-81
2022/05/11 12:53:22;;;;;;;3.50;3.30;;;32.20;54.10;;;;;;6053841;23;21076;-81
2022/05/11 12:55:52;;;;;;;3.80;3.40;;;32.40;54.70;;;;;;6065731;23;20514;-80
2022/05/11 12:58:22;;;;;;;3.53;3.33;;;32.40;54.20;;;;;;6056270;23;20436;-80
2022/05/11 13:00:56;;;;;;;5.67;3.60;;;32.10;53.60;;;;;;6077075;23;20768;-81
2022/05/11 13:03:27;;;;;;;3.93;3.40;;;31.80;53.70;;;;;;6060808;23;20985;-81
2022/05/11 13:05:59;;;;;;;5.17;3.20;;;32.00;53.80;;;;;;6059471;23;20866;-81
2022/05/11 13:08:29;;;;;;;3.70;3.27;;;32.00;52.30;;;;;;6061105;23;20478;-81
2022/05/11 13:10:57;;;;;;;4.90;3.80;;;32.20;51.30;;;;;;6067217;23;20981;-81
2022/05/11 13:13:30;;;;;;;3.97;3.67;;;32.40;52.30;;;;;;6062319;23;20459;-81
2022/05/11 13:16:05;;;;;;;3.57;3.23;;;32.70;51.80;;;;;;6071517;23;20961;-81
2022/05/11 13:18:33;;;;;;;3.00;2.80;;;32.90;51.20;;;;;;6062541;23;20801;-82
2022/05/11 13:21:05;;;;;;;4.13;3.40;;;33.30;49.90;;;;;;6064286;23;20888;-79
2022/05/11 13:23:36;;;;;;;3.03;2.70;;;34.00;50.00;;;;;;6065953;23;20455;-78
2022/05/11 13:26:08;;;;;;;3.50;3.20;;;34.20;49.00;;;;;;6073108;23;20431;-79
2022/05/11 13:28:38;;;;;;;6.87;3.00;;;34.60;47.70;;;;;;6064188;23;20509;-78
2022/05/11 13:31:27;;;;;;;3.10;2.80;;;35.70;47.20;;;;;;6087718;23;20435;-79
2022/05/11 13:33:55;;;;;;;4.13;3.27;;;37.10;46.00;;;;;;6081389;23;20876;-79
2022/05/11 13:36:26;;;;;;;4.00;3.13;;;37.40;46.10;;;;;;6079448;23;20443;-80
2022/05/11 13:39:02;;;;;;;7.27;3.13;;;37.00;43.20;;;;;;6061751;23;20474;-79